Terminal Aerodrome Forecast
Issued by NWS Pocatello, ID

Home | Current Version | Previous Version | Text Only | Print | Product List | Glossary On
Versions: 1 2 3 4 5 6 7 8 9 10 11 12 13 14 15
000
FTUS45 KPIH 271100
TAFBYI
TAF
KBYI 271120Z 2712/2812 21011KT P6SM OVC200
     FM271900 23008KT P6SM SCT140 OVC200
     FM280200 21006KT P6SM BKN200=

USA.gov is the U.S. government's official web portal to all federal, state and local government web resources and services.